MA62 weather

Sampson Pond Heliport
Carver, Massachusetts, United States

Public forecast

Using degrees Fahrenheit for public forecast. Weather courtesy of forecast.io.

METAR (pilot weather report)

Closest report is Plymouth Municipal Airport, 3.1 nm (5.7 km) NNE. Retrieved 2019/09/23 15:52 UTC (1 hour ago):

KPYM 231552Z AUTO 21012KT 10SM FEW080 27/19 A2985 RMK AO2 SLP105 T02670194

TAF (pilot weather forecast)

Closest forecast is Cape Cod Coast Guard Air Station, 15.9 nm (29.5 km) SE. Retrieved 2019/09/23 12:24 UTC (4 hours ago):

TAF KFMH 231120Z 2312/2412 22014KT P6SM SCT250 FM240300 23016KT P6SM VCSH OVC060 FM240500 23012KT 6SM -RA BR OVC020 FM240700 23010KT 3SM -RA BR OVC020 FM241000 23008KT 6SM BR VCSH OVC025